createdAt,value
2018-02-18T00:01:30.867Z,1.90
2018-02-18T00:03:58.878Z,1.80
2018-02-18T00:06:26.516Z,1.80
2018-02-18T00:08:54.151Z,1.80
2018-02-18T00:11:22.218Z,1.70
2018-02-18T00:13:51.693Z,1.70
2018-02-18T00:16:19.289Z,1.70
2018-02-18T00:18:46.795Z,1.70
2018-02-18T00:21:14.309Z,1.70
2018-02-18T00:23:41.960Z,1.70
2018-02-18T00:26:09.552Z,1.70
2018-02-18T00:28:37.187Z,1.70
2018-02-18T00:31:05.193Z,1.70
2018-02-18T00:33:32.793Z,1.70
2018-02-18T00:36:00.419Z,1.70
2018-02-18T00:38:28.032Z,1.70
2018-02-18T00:40:56.043Z,1.80
2018-02-18T00:43:23.619Z,1.80
2018-02-18T00:45:51.216Z,1.80
2018-02-18T00:48:19.199Z,1.80
2018-02-18T00:50:46.802Z,1.80
2018-02-18T00:53:14.457Z,1.90
2018-02-18T00:55:42.081Z,1.90
2018-02-18T00:58:10.617Z,2.00
2018-02-18T01:00:38.144Z,2.00
2018-02-18T01:03:05.666Z,2.00
2018-02-18T01:05:33.628Z,2.00
2018-02-18T01:08:01.209Z,2.00
2018-02-18T01:10:28.760Z,2.00
2018-02-18T01:12:56.324Z,2.00
2018-02-18T01:15:23.964Z,2.10
2018-02-18T01:17:51.595Z,2.20
2018-02-18T01:20:19.211Z,2.20
2018-02-18T01:22:46.866Z,2.20
2018-02-18T01:25:14.544Z,2.20
2018-02-18T01:27:42.167Z,2.20
2018-02-18T01:30:09.754Z,2.10
2018-02-18T01:32:37.404Z,2.10
2018-02-18T01:35:05.020Z,2.00
2018-02-18T01:37:32.624Z,1.90
2018-02-18T01:40:00.259Z,1.90
2018-02-18T01:42:27.826Z,1.90
2018-02-18T01:44:55.453Z,1.80
2018-02-18T01:47:23.057Z,1.80
2018-02-18T01:49:50.705Z,1.70
2018-02-18T01:52:18.339Z,1.60
2018-02-18T01:54:46.121Z,1.50
2018-02-18T01:57:13.729Z,1.50
2018-02-18T01:59:41.400Z,1.50
2018-02-18T02:02:09.807Z,1.50
2018-02-18T02:04:37.420Z,1.50
2018-02-18T02:07:05.057Z,1.50
2018-02-18T02:09:32.707Z,1.50
2018-02-18T02:12:00.270Z,1.50
2018-02-18T02:14:27.854Z,1.50
2018-02-18T02:16:55.524Z,1.60
2018-02-18T02:19:23.170Z,1.60
2018-02-18T02:21:50.823Z,1.60
2018-02-18T02:24:18.439Z,1.60
2018-02-18T02:26:46.043Z,1.50
2018-02-18T02:29:13.703Z,1.50
2018-02-18T02:31:41.394Z,1.50
2018-02-18T02:34:09.036Z,1.50
2018-02-18T02:36:36.692Z,1.50
2018-02-18T02:39:04.317Z,1.50
2018-02-18T02:41:32.353Z,1.60
2018-02-18T02:43:59.919Z,1.60
2018-02-18T02:46:28.430Z,1.60
2018-02-18T02:48:56.405Z,1.50
2018-02-18T02:51:24.064Z,1.50
2018-02-18T02:53:52.956Z,1.50
2018-02-18T02:56:20.890Z,1.50
2018-02-18T02:58:48.763Z,1.50
2018-02-18T03:01:16.400Z,1.50
2018-02-18T03:03:44.066Z,1.50
2018-02-18T03:06:11.689Z,1.50
2018-02-18T03:08:39.303Z,1.50
2018-02-18T03:11:06.929Z,1.60
2018-02-18T03:13:34.552Z,1.50
2018-02-18T03:16:02.148Z,1.50
2018-02-18T03:18:30.746Z,1.50
2018-02-18T03:20:58.347Z,1.50
2018-02-18T03:23:29.917Z,1.50
2018-02-18T03:25:57.572Z,1.50
2018-02-18T03:28:26.077Z,1.50
2018-02-18T03:30:53.665Z,1.50
2018-02-18T03:33:21.223Z,1.50
2018-02-18T03:35:48.845Z,1.50
2018-02-18T03:38:16.565Z,1.50
2018-02-18T03:40:44.629Z,1.50
2018-02-18T03:43:12.231Z,1.50
2018-02-18T03:45:40.010Z,1.50
2018-02-18T03:48:08.568Z,1.60
2018-02-18T03:50:36.597Z,1.70
2018-02-18T03:53:04.217Z,1.70
2018-02-18T03:55:31.762Z,1.60
2018-02-18T03:57:59.319Z,1.70
2018-02-18T04:00:26.871Z,1.60
2018-02-18T04:02:54.568Z,1.50
2018-02-18T04:05:22.140Z,1.40
2018-02-18T04:07:49.790Z,1.40
2018-02-18T04:10:17.360Z,1.40
2018-02-18T04:12:44.940Z,1.40
2018-02-18T04:15:12.507Z,1.40
2018-02-18T04:17:40.160Z,1.40
2018-02-18T04:20:07.797Z,1.40
2018-02-18T04:22:35.434Z,1.40
2018-02-18T04:25:03.286Z,1.40
2018-02-18T04:27:30.917Z,1.40
2018-02-18T04:29:58.503Z,1.40
2018-02-18T04:32:26.099Z,1.40
2018-02-18T04:34:53.622Z,1.40
2018-02-18T04:37:21.726Z,1.40
2018-02-18T04:39:49.383Z,1.40
2018-02-18T04:42:17.016Z,1.40
2018-02-18T04:44:44.636Z,1.40
2018-02-18T04:47:13.203Z,1.40
2018-02-18T04:49:40.735Z,1.40
2018-02-18T04:52:08.378Z,1.40
2018-02-18T04:54:35.925Z,1.40
2018-02-18T04:57:03.559Z,1.40
2018-02-18T04:59:31.878Z,1.40
2018-02-18T05:01:59.520Z,1.40
2018-02-18T05:04:27.130Z,1.40
2018-02-18T05:06:55.765Z,1.40
2018-02-18T05:09:24.215Z,1.40
2018-02-18T05:11:52.249Z,1.40
2018-02-18T05:14:19.797Z,1.40
2018-02-18T05:16:47.330Z,1.40
2018-02-18T05:19:14.940Z,1.40
2018-02-18T05:21:42.576Z,1.40
2018-02-18T05:24:10.176Z,1.40
2018-02-18T05:26:37.836Z,1.30
2018-02-18T05:29:05.426Z,1.30
2018-02-18T05:31:33.076Z,1.30
2018-02-18T05:34:00.639Z,1.30
2018-02-18T05:36:28.271Z,1.30
2018-02-18T05:38:56.998Z,1.30
2018-02-18T05:41:24.630Z,1.30
2018-02-18T05:43:52.196Z,1.30
2018-02-18T05:46:19.815Z,1.30
2018-02-18T05:48:47.492Z,1.30
2018-02-18T05:51:15.154Z,1.40
2018-02-18T05:53:42.762Z,1.40
2018-02-18T05:56:10.380Z,1.50
2018-02-18T05:58:37.975Z,1.50
2018-02-18T06:01:05.603Z,1.50
2018-02-18T06:03:33.197Z,1.60
2018-02-18T06:06:00.816Z,1.60
2018-02-18T06:08:28.423Z,1.50
2018-02-18T06:10:55.947Z,1.50
2018-02-18T06:13:23.932Z,1.40
2018-02-18T06:15:51.518Z,1.40
2018-02-18T06:18:19.079Z,1.40
2018-02-18T06:20:46.604Z,1.50
2018-02-18T06:23:14.221Z,1.50
2018-02-18T06:25:41.858Z,1.50
2018-02-18T06:28:09.453Z,1.50
2018-02-18T06:30:37.023Z,1.50
2018-02-18T06:33:05.080Z,1.50
2018-02-18T06:35:32.673Z,1.60
2018-02-18T06:38:00.245Z,1.60
2018-02-18T06:40:27.876Z,1.60
2018-02-18T06:42:55.480Z,1.60
2018-02-18T06:45:23.142Z,1.60
2018-02-18T06:47:50.682Z,1.60
2018-02-18T06:50:18.311Z,1.60
2018-02-18T06:52:45.917Z,1.60
2018-02-18T06:55:13.569Z,1.50
2018-02-18T06:57:41.209Z,1.60
2018-02-18T07:00:08.817Z,1.60
2018-02-18T07:02:36.451Z,1.50
2018-02-18T07:05:04.096Z,1.50
2018-02-18T07:07:31.676Z,1.50
2018-02-18T07:09:59.262Z,1.50
2018-02-18T07:12:27.371Z,1.50
2018-02-18T07:14:55.010Z,1.50
2018-02-18T07:17:22.599Z,1.50
2018-02-18T07:19:50.236Z,1.50
2018-02-18T07:22:17.855Z,1.50
2018-02-18T07:24:45.546Z,1.50
2018-02-18T07:27:13.142Z,1.50
2018-02-18T07:29:40.706Z,1.50
2018-02-18T07:32:09.207Z,1.50
2018-02-18T07:34:37.804Z,1.50
2018-02-18T07:37:05.484Z,1.50
2018-02-18T07:39:33.492Z,1.60
2018-02-18T07:42:01.105Z,1.50
2018-02-18T07:44:28.700Z,1.50
2018-02-18T07:46:56.348Z,1.50
2018-02-18T07:49:24.082Z,1.50
2018-02-18T07:51:51.728Z,1.60
2018-02-18T07:54:22.044Z,1.60
2018-02-18T07:56:49.693Z,1.70
2018-02-18T07:59:18.315Z,1.70
2018-02-18T08:01:45.943Z,1.70
2018-02-18T08:04:13.669Z,1.60
2018-02-18T08:06:41.915Z,1.60
2018-02-18T08:09:09.953Z,1.70
2018-02-18T08:11:37.577Z,1.70
2018-02-18T08:14:05.227Z,1.70
2018-02-18T08:16:33.503Z,1.80
2018-02-18T08:19:01.491Z,1.80
2018-02-18T08:21:29.140Z,1.80
2018-02-18T08:23:57.399Z,1.70
2018-02-18T08:26:26.204Z,1.70
2018-02-18T08:28:55.917Z,1.70
2018-02-18T08:31:24.447Z,1.70
2018-02-18T08:33:52.083Z,1.70
2018-02-18T08:36:19.645Z,1.70
2018-02-18T08:38:47.811Z,1.70
2018-02-18T08:41:16.068Z,1.70
2018-02-18T08:43:43.749Z,1.70
2018-02-18T08:46:12.664Z,1.80
2018-02-18T08:48:42.120Z,1.70
2018-02-18T08:51:14.212Z,1.80
2018-02-18T08:53:43.210Z,1.80
2018-02-18T08:56:10.882Z,1.80
2018-02-18T08:58:38.993Z,1.70
2018-02-18T09:01:08.440Z,1.80
2018-02-18T09:03:38.156Z,1.90
2018-02-18T09:06:05.898Z,1.90
2018-02-18T09:08:34.528Z,1.90
2018-02-18T09:11:02.547Z,1.90
2018-02-18T09:13:30.166Z,1.90
2018-02-18T09:15:58.200Z,2.00
2018-02-18T09:18:28.362Z,2.00
2018-02-18T09:20:56.467Z,2.10
2018-02-18T09:23:24.191Z,2.10
2018-02-18T09:25:51.781Z,2.10
2018-02-18T09:28:20.484Z,2.20
2018-02-18T09:30:49.357Z,2.30
2018-02-18T09:33:17.947Z,2.50
2018-02-18T09:35:47.112Z,2.40
2018-02-18T09:38:16.382Z,2.30
2018-02-18T09:40:46.677Z,2.40
2018-02-18T09:43:14.404Z,2.50
2018-02-18T09:45:42.080Z,2.40
2018-02-18T09:48:12.909Z,2.30
2018-02-18T09:50:41.248Z,2.30
2018-02-18T09:53:10.037Z,2.30
2018-02-18T09:55:37.771Z,2.40
2018-02-18T09:58:05.919Z,2.50
2018-02-18T10:00:33.943Z,2.70
2018-02-18T10:03:01.584Z,2.80
2018-02-18T10:05:29.285Z,2.70
2018-02-18T10:08:03.732Z,2.70
2018-02-18T10:10:31.534Z,2.60
2018-02-18T10:13:00.651Z,2.80
2018-02-18T10:15:48.680Z,2.80
2018-02-18T10:18:16.673Z,2.90
2018-02-18T10:20:44.349Z,2.90
2018-02-18T10:23:11.996Z,3.00
2018-02-18T10:25:39.644Z,3.20
2018-02-18T10:28:08.243Z,3.20
2018-02-18T10:30:36.671Z,3.30
2018-02-18T10:33:05.184Z,3.20
2018-02-18T10:35:32.873Z,3.10
2018-02-18T10:38:00.567Z,3.00
2018-02-18T10:40:28.210Z,3.00
2018-02-18T10:45:31.196Z,3.40
2018-02-18T10:47:58.930Z,3.50
2018-02-18T10:50:26.993Z,3.40
2018-02-18T10:52:54.634Z,3.40
2018-02-18T10:55:23.168Z,3.50
2018-02-18T10:57:50.758Z,3.40
2018-02-18T11:00:19.064Z,3.30
2018-02-18T11:02:47.588Z,3.30
2018-02-18T11:05:16.032Z,3.30
2018-02-18T11:07:44.628Z,3.20
2018-02-18T11:10:12.212Z,3.10
2018-02-18T11:12:40.005Z,3.00
2018-02-18T11:15:07.623Z,3.00
2018-02-18T11:17:35.165Z,2.90
2018-02-18T11:20:02.828Z,3.00
2018-02-18T11:22:31.333Z,3.10
2018-02-18T11:24:59.894Z,3.00
2018-02-18T11:27:27.562Z,3.10
2018-02-18T11:29:55.312Z,3.00
2018-02-18T11:32:23.210Z,3.00
2018-02-18T11:34:52.524Z,3.00
2018-02-18T11:37:20.887Z,2.90
2018-02-18T11:39:49.502Z,2.90
2018-02-18T11:42:17.951Z,2.90
2018-02-18T11:44:45.477Z,2.90
2018-02-18T11:47:13.118Z,2.90
2018-02-18T11:49:41.628Z,2.90
2018-02-18T11:52:09.353Z,2.90
2018-02-18T11:54:37.112Z,3.10
2018-02-18T11:57:05.733Z,3.10
2018-02-18T11:59:33.638Z,3.20
2018-02-18T12:02:01.245Z,3.30
2018-02-18T12:04:29.005Z,3.30
2018-02-18T12:06:57.542Z,3.60
2018-02-18T12:09:25.250Z,3.60
2018-02-18T12:11:52.947Z,3.70
2018-02-18T12:14:21.022Z,3.80
2018-02-18T12:17:05.891Z,3.80
2018-02-18T12:19:59.450Z,3.80
2018-02-18T12:22:30.003Z,3.80
2018-02-18T12:25:01.482Z,3.70
2018-02-18T12:27:34.922Z,3.70
2018-02-18T12:30:07.942Z,3.50
2018-02-18T12:32:35.887Z,3.50
2018-02-18T12:35:06.643Z,3.50
2018-02-18T12:37:53.986Z,3.60
2018-02-18T12:40:26.648Z,3.60
2018-02-18T12:43:08.507Z,3.50
2018-02-18T12:45:40.110Z,3.30
2018-02-18T12:48:10.395Z,3.30
2018-02-18T12:50:38.130Z,3.20
2018-02-18T12:56:00.107Z,3.50
2018-02-18T12:58:31.608Z,3.70
2018-02-18T13:01:00.570Z,3.60
2018-02-18T13:03:29.559Z,3.30
2018-02-18T13:05:57.831Z,3.40
2018-02-18T13:08:26.632Z,3.40
2018-02-18T13:10:54.282Z,3.40
2018-02-18T13:13:21.927Z,3.50
2018-02-18T13:15:50.427Z,3.60
2018-02-18T13:18:18.519Z,3.60
2018-02-18T13:20:46.178Z,3.60
2018-02-18T13:23:14.373Z,3.40
2018-02-18T13:25:42.075Z,3.40
2018-02-18T13:28:09.807Z,3.30
2018-02-18T13:30:37.316Z,3.20
2018-02-18T13:33:04.954Z,3.20
2018-02-18T13:35:32.609Z,3.30
2018-02-18T13:38:00.177Z,3.40
2018-02-18T13:40:27.796Z,3.60
2018-02-18T13:42:56.700Z,3.50
2018-02-18T13:45:34.042Z,3.40
2018-02-18T13:48:13.290Z,3.40
2018-02-18T13:50:43.961Z,3.40
2018-02-18T13:53:21.356Z,3.50
2018-02-18T13:55:50.168Z,3.60
2018-02-18T13:58:27.949Z,3.50
2018-02-18T14:00:55.679Z,3.50
2018-02-18T14:03:23.332Z,3.50
2018-02-18T14:05:51.489Z,3.60
2018-02-18T14:08:19.756Z,3.50
2018-02-18T14:10:47.851Z,3.10
2018-02-18T14:13:15.537Z,3.10
2018-02-18T14:15:43.376Z,3.10
2018-02-18T14:18:11.417Z,3.10
2018-02-18T14:20:40.080Z,3.20
2018-02-18T14:23:10.185Z,3.10
2018-02-18T14:25:37.804Z,3.10
2018-02-18T14:28:05.464Z,3.10
2018-02-18T14:30:34.012Z,2.90
2018-02-18T14:33:01.615Z,2.90
2018-02-18T14:35:29.261Z,2.80
2018-02-18T14:37:57.075Z,2.90
2018-02-18T14:40:26.216Z,2.90
2018-02-18T14:43:05.644Z,2.90
2018-02-18T14:45:54.032Z,2.80
2018-02-18T14:48:33.529Z,2.80
2018-02-18T14:51:12.964Z,2.70
2018-02-18T14:53:52.445Z,2.70
2018-02-18T14:56:31.858Z,2.80
2018-02-18T14:58:59.521Z,2.80
2018-02-18T15:01:27.279Z,2.80
2018-02-18T15:03:55.087Z,2.80
2018-02-18T15:06:24.490Z,2.80
2018-02-18T15:08:52.628Z,2.80
2018-02-18T15:11:20.780Z,2.80
2018-02-18T15:13:48.533Z,2.80
2018-02-18T15:16:16.265Z,2.90
2018-02-18T15:18:45.012Z,2.90
2018-02-18T15:21:12.721Z,2.90
2018-02-18T15:23:40.559Z,2.80
2018-02-18T15:26:08.181Z,2.80
2018-02-18T15:28:36.676Z,2.80
2018-02-18T15:31:04.357Z,2.80
2018-02-18T15:33:32.036Z,2.80
2018-02-18T15:35:59.733Z,2.70
2018-02-18T15:38:27.402Z,2.70
2018-02-18T15:40:55.084Z,2.70
2018-02-18T15:43:22.784Z,2.70
2018-02-18T15:45:50.434Z,2.70
2018-02-18T15:48:18.222Z,2.70
2018-02-18T15:50:46.539Z,2.70
2018-02-18T15:53:14.342Z,2.80
2018-02-18T15:55:42.014Z,2.80
2018-02-18T15:58:10.606Z,2.70
2018-02-18T16:00:39.042Z,2.70
2018-02-18T16:03:06.934Z,2.70
2018-02-18T16:05:35.189Z,2.80
2018-02-18T16:08:02.874Z,2.70
2018-02-18T16:10:30.587Z,2.70
2018-02-18T16:12:58.576Z,2.60
2018-02-18T16:15:26.313Z,2.60
2018-02-18T16:17:53.957Z,2.50
2018-02-18T16:20:21.707Z,2.50
2018-02-18T16:22:49.365Z,2.50
2018-02-18T16:25:24.620Z,2.40
2018-02-18T16:27:52.278Z,2.40
2018-02-18T16:30:20.547Z,2.40
2018-02-18T16:32:49.174Z,2.40
2018-02-18T16:35:17.568Z,2.40
2018-02-18T16:37:45.228Z,2.30
2018-02-18T16:40:12.907Z,2.30
2018-02-18T16:42:40.595Z,2.30
2018-02-18T16:45:08.466Z,2.30
2018-02-18T16:47:36.339Z,2.30
2018-02-18T16:50:04.019Z,2.30
2018-02-18T16:52:31.638Z,2.20
2018-02-18T16:55:00.514Z,2.30
2018-02-18T16:57:29.894Z,2.30
2018-02-18T16:59:57.508Z,2.20
2018-02-18T17:02:25.191Z,2.20
2018-02-18T17:04:52.912Z,2.10
2018-02-18T17:07:21.240Z,2.20
2018-02-18T17:09:49.573Z,2.30
2018-02-18T17:12:17.277Z,2.20
2018-02-18T17:14:44.951Z,2.20
2018-02-18T17:17:12.720Z,2.20
2018-02-18T17:19:40.441Z,2.20
2018-02-18T17:22:08.150Z,2.20
2018-02-18T17:24:36.258Z,2.20
2018-02-18T17:27:05.740Z,2.20
2018-02-18T17:29:34.543Z,2.20
2018-02-18T17:32:03.170Z,2.20
2018-02-18T17:34:31.884Z,2.20
2018-02-18T17:37:01.222Z,2.20
2018-02-18T17:39:29.735Z,2.20
2018-02-18T17:41:58.876Z,2.20
2018-02-18T17:44:28.636Z,2.10
2018-02-18T17:46:57.423Z,2.00
2018-02-18T17:49:25.878Z,2.10
2018-02-18T17:51:53.555Z,2.10
2018-02-18T17:54:21.904Z,2.20
2018-02-18T17:56:49.738Z,2.10
2018-02-18T17:59:18.973Z,2.00
2018-02-18T18:01:49.031Z,2.10
2018-02-18T18:04:16.715Z,2.10
2018-02-18T18:06:44.488Z,2.10
2018-02-18T18:09:12.128Z,2.00
2018-02-18T18:11:39.797Z,2.00
2018-02-18T18:14:08.268Z,2.00
2018-02-18T18:16:35.996Z,2.10
2018-02-18T18:19:04.716Z,2.10
2018-02-18T18:21:32.504Z,2.10
2018-02-18T18:24:00.259Z,2.00
2018-02-18T18:26:27.986Z,2.10
2018-02-18T18:28:57.521Z,2.00
2018-02-18T18:31:25.263Z,2.00
2018-02-18T18:33:52.942Z,2.00
2018-02-18T18:36:20.676Z,1.90
2018-02-18T18:38:49.399Z,1.90
2018-02-18T18:41:17.954Z,2.00
2018-02-18T18:43:46.543Z,1.90
2018-02-18T18:46:14.507Z,1.90
2018-02-18T18:48:43.181Z,1.80
2018-02-18T18:51:11.453Z,1.80
2018-02-18T18:53:39.372Z,1.70
2018-02-18T18:56:07.026Z,1.70
2018-02-18T18:58:36.393Z,1.70
2018-02-18T19:01:05.025Z,1.70
2018-02-18T19:03:33.173Z,1.80
2018-02-18T19:06:01.013Z,1.80
2018-02-18T19:08:28.892Z,1.80
2018-02-18T19:10:56.994Z,1.80
2018-02-18T19:13:24.836Z,1.80
2018-02-18T19:15:53.486Z,1.70
2018-02-18T19:18:24.998Z,1.70
2018-02-18T19:20:52.926Z,1.70
2018-02-18T19:23:20.616Z,1.60
2018-02-18T19:25:48.777Z,1.60
2018-02-18T19:28:18.773Z,1.60
2018-02-18T19:30:46.408Z,1.60
2018-02-18T19:33:14.024Z,1.60
2018-02-18T19:35:43.076Z,1.50
2018-02-18T19:38:10.759Z,1.50
2018-02-18T19:40:40.783Z,1.50
2018-02-18T19:43:09.142Z,1.50
2018-02-18T19:45:37.067Z,1.50
2018-02-18T19:48:04.704Z,1.50
2018-02-18T19:50:33.075Z,1.50
2018-02-18T19:53:01.895Z,1.50
2018-02-18T19:55:29.740Z,1.50
2018-02-18T20:15:12.575Z,1.60
2018-02-18T20:34:56.901Z,1.50
2018-02-18T20:37:24.921Z,1.50
2018-02-18T20:57:11.660Z,1.50
2018-02-18T20:59:40.209Z,1.50
2018-02-18T21:19:25.107Z,1.40
2018-02-18T21:21:53.608Z,1.40
2018-02-18T21:41:38.768Z,1.50
2018-02-18T21:44:07.782Z,1.50
2018-02-18T22:03:53.008Z,1.40
2018-02-18T22:06:20.711Z,1.40
2018-02-18T22:26:05.544Z,1.40
2018-02-18T22:28:33.186Z,1.40
2018-02-18T22:48:19.555Z,1.30
2018-02-18T22:50:48.226Z,1.30
2018-02-18T23:10:31.107Z,1.40
2018-02-18T23:12:59.657Z,1.40
2018-02-18T23:32:46.766Z,1.20
2018-02-18T23:35:15.393Z,1.20
2018-02-18T23:55:02.087Z,1.10
2018-02-18T23:57:29.800Z,1.10
